createdAt,value
2023-01-09T00:03:51.165Z,5.30
2023-01-09T00:08:53.801Z,5.30
2023-01-09T00:13:56.022Z,5.20
2023-01-09T00:18:58.260Z,5.00
2023-01-09T00:24:00.509Z,5.00
2023-01-09T00:29:02.931Z,4.80
2023-01-09T00:34:07.497Z,4.80
2023-01-09T00:39:09.819Z,4.80
2023-01-09T00:44:26.204Z,4.90
2023-01-09T00:49:36.060Z,5.00
2023-01-09T00:54:39.480Z,4.90
2023-01-09T00:59:43.283Z,4.90
2023-01-09T01:05:04.247Z,4.70
2023-01-09T01:10:10.671Z,4.60
2023-01-09T01:15:13.633Z,4.50
2023-01-09T01:20:18.404Z,4.40
2023-01-09T01:25:20.715Z,4.50
2023-01-09T01:30:22.979Z,4.50
2023-01-09T01:35:26.808Z,4.60
2023-01-09T01:40:29.742Z,4.30
2023-01-09T01:45:33.190Z,4.20
2023-01-09T01:50:49.054Z,4.30
2023-01-09T01:56:14.577Z,4.30
2023-01-09T02:01:18.145Z,4.40
2023-01-09T02:06:20.592Z,4.30
2023-01-09T02:11:23.428Z,4.20
2023-01-09T02:16:47.909Z,4.20
2023-01-09T02:22:12.674Z,4.20
2023-01-09T02:27:32.883Z,4.20
2023-01-09T02:32:50.697Z,4.20
2023-01-09T02:38:19.761Z,4.30
2023-01-09T02:43:22.605Z,4.30
2023-01-09T02:48:25.006Z,4.10
2023-01-09T02:54:01.424Z,4.10
2023-01-09T02:59:21.223Z,4.10
2023-01-09T03:04:44.292Z,4.10
2023-01-09T03:09:48.271Z,4.10
2023-01-09T03:14:55.035Z,4.10
2023-01-09T03:19:57.986Z,3.90
2023-01-09T03:25:00.235Z,3.70
2023-01-09T03:30:02.505Z,3.70
2023-01-09T03:35:05.160Z,3.70
2023-01-09T03:40:08.297Z,3.60
2023-01-09T03:45:10.832Z,3.60
2023-01-09T03:50:13.077Z,3.60
2023-01-09T03:55:15.818Z,3.50
2023-01-09T04:00:19.304Z,3.40
2023-01-09T04:05:22.061Z,3.40
2023-01-09T04:10:24.525Z,3.30
2023-01-09T04:15:26.776Z,3.20
2023-01-09T04:20:29.370Z,3.30
2023-01-09T04:25:31.745Z,3.30
2023-01-09T04:30:34.056Z,3.20
2023-01-09T04:35:36.351Z,3.10
2023-01-09T04:40:39.070Z,3.10
2023-01-09T04:45:41.394Z,3.10
2023-01-09T04:50:43.671Z,3.20
2023-01-09T04:55:46.151Z,3.10
2023-01-09T05:00:48.382Z,3.10
2023-01-09T05:05:51.097Z,3.10
2023-01-09T05:10:53.328Z,3.00
2023-01-09T05:15:55.653Z,3.00
2023-01-09T05:20:57.929Z,3.00
2023-01-09T05:26:00.241Z,3.00
2023-01-09T05:31:02.489Z,3.10
2023-01-09T05:36:05.117Z,3.10
2023-01-09T05:41:07.840Z,3.10
2023-01-09T05:46:10.444Z,3.00
2023-01-09T05:51:13.336Z,3.10
2023-01-09T05:56:15.749Z,3.20
2023-01-09T06:01:18.041Z,3.10
2023-01-09T06:06:20.799Z,3.00
2023-01-09T06:11:23.070Z,3.10
2023-01-09T06:16:25.403Z,3.00
2023-01-09T06:21:29.499Z,3.00
2023-01-09T06:26:31.802Z,3.00
2023-01-09T06:31:34.206Z,2.90
2023-01-09T06:36:36.522Z,2.90
2023-01-09T06:41:38.806Z,2.80
2023-01-09T06:46:41.525Z,2.90
2023-01-09T06:51:43.834Z,2.90
2023-01-09T06:56:46.182Z,2.90
2023-01-09T07:01:48.599Z,2.90
2023-01-09T07:06:51.210Z,2.90
2023-01-09T07:11:53.577Z,3.10
2023-01-09T07:16:55.845Z,3.10
2023-01-09T07:22:00.885Z,3.20
2023-01-09T07:27:03.370Z,3.20
2023-01-09T07:32:05.759Z,3.20
2023-01-09T07:37:08.188Z,3.20
2023-01-09T07:42:31.029Z,3.20
2023-01-09T07:47:33.517Z,3.30
2023-01-09T07:52:35.877Z,3.50
2023-01-09T07:57:38.433Z,3.70
2023-01-09T08:02:40.799Z,3.70
2023-01-09T08:07:43.611Z,3.70
2023-01-09T08:12:47.780Z,3.70
2023-01-09T08:17:50.251Z,3.70
2023-01-09T08:22:54.251Z,3.60
2023-01-09T08:27:56.605Z,3.80
2023-01-09T08:32:58.970Z,3.90
2023-01-09T08:38:01.407Z,3.80
2023-01-09T08:43:22.277Z,3.90
2023-01-09T08:48:24.592Z,3.80
2023-01-09T08:53:27.071Z,4.00
2023-01-09T08:58:30.149Z,4.00
2023-01-09T09:03:32.739Z,4.10
2023-01-09T09:20:50.457Z,4.10
2023-01-09T09:25:53.014Z,4.30
2023-01-09T09:30:55.359Z,4.30
2023-01-09T09:36:00.747Z,4.30
2023-01-09T09:41:36.594Z,4.40
2023-01-09T09:47:06.542Z,4.40
2023-01-09T09:52:15.352Z,4.30
2023-01-09T09:57:23.622Z,4.40
2023-01-09T10:02:55.068Z,4.40
2023-01-09T10:08:15.897Z,4.40
2023-01-09T10:13:40.592Z,4.40
2023-01-09T10:19:03.454Z,4.40
2023-01-09T10:24:23.671Z,4.60
2023-01-09T10:29:38.339Z,4.60
2023-01-09T10:35:08.577Z,4.70
2023-01-09T10:40:29.588Z,4.70
2023-01-09T10:45:38.819Z,4.80
2023-01-09T10:50:45.972Z,4.80
2023-01-09T10:55:51.591Z,4.90
2023-01-09T11:00:53.997Z,4.90
2023-01-09T11:05:59.102Z,5.10
2023-01-09T11:11:02.868Z,5.10
2023-01-09T11:16:17.617Z,5.20
2023-01-09T11:21:37.617Z,5.20
2023-01-09T11:26:40.046Z,5.30
2023-01-09T11:31:52.123Z,5.30
2023-01-09T11:37:14.095Z,5.40
2023-01-09T11:42:45.405Z,5.50
2023-01-09T12:03:49.743Z,5.50
2023-01-09T12:09:22.158Z,5.60
2023-01-09T12:14:45.984Z,5.70
2023-01-09T12:20:22.233Z,5.70
2023-01-09T12:43:44.497Z,5.90
2023-01-09T12:49:11.506Z,5.90
2023-01-09T12:54:24.787Z,5.80
2023-01-09T12:59:37.867Z,5.90
2023-01-09T13:05:25.532Z,5.90
2023-01-09T13:10:33.331Z,6.00
2023-01-09T13:15:45.601Z,6.00
2023-01-09T13:20:56.643Z,6.20
2023-01-09T13:26:03.688Z,6.20
2023-01-09T13:31:28.074Z,6.00
2023-01-09T13:36:46.680Z,5.90
2023-01-09T13:42:18.128Z,5.80
2023-01-09T13:47:28.005Z,5.80
2023-01-09T13:52:37.317Z,5.80
2023-01-09T13:57:44.367Z,5.70
2023-01-09T14:02:47.256Z,5.80
2023-01-09T14:07:52.018Z,5.70
2023-01-09T14:12:57.043Z,5.80
2023-01-09T14:18:15.692Z,5.80
2023-01-09T14:23:50.514Z,5.70
2023-01-09T14:29:31.330Z,5.70
2023-01-09T14:34:39.116Z,5.70
2023-01-09T14:39:45.786Z,5.70
2023-01-09T14:44:53.771Z,5.60
2023-01-09T14:50:17.342Z,5.70
2023-01-09T14:55:50.700Z,5.70
2023-01-09T15:01:11.457Z,5.70
2023-01-09T15:06:21.344Z,5.70
2023-01-09T15:11:24.513Z,5.70
2023-01-09T15:16:27.890Z,5.70
2023-01-09T15:21:31.426Z,5.70
2023-01-09T15:26:34.432Z,5.80
2023-01-09T15:31:40.646Z,5.90
2023-01-09T15:36:43.219Z,5.80
2023-01-09T15:42:05.563Z,5.80
2023-01-09T15:47:15.052Z,5.80
2023-01-09T15:52:19.154Z,5.80
2023-01-09T15:57:24.466Z,5.90
2023-01-09T16:02:45.801Z,5.90
2023-01-09T16:07:49.752Z,5.90
2023-01-09T16:12:53.249Z,6.00
2023-01-09T16:18:23.282Z,5.90
2023-01-09T16:23:33.078Z,5.90
2023-01-09T16:28:36.001Z,6.00
2023-01-09T16:33:45.760Z,6.00
2023-01-09T16:38:48.336Z,6.00
2023-01-09T16:43:51.561Z,6.10
2023-01-09T16:48:53.954Z,6.00
2023-01-09T16:53:56.507Z,6.10
2023-01-09T16:58:59.467Z,6.10
2023-01-09T17:04:01.777Z,6.10
2023-01-09T17:09:04.119Z,6.20
2023-01-09T17:14:07.317Z,6.10
2023-01-09T17:19:15.922Z,6.20
2023-01-09T17:24:37.139Z,6.10
2023-01-09T17:29:39.837Z,6.10
2023-01-09T17:34:42.706Z,6.20
2023-01-09T17:39:45.676Z,6.20
2023-01-09T17:44:47.934Z,6.20
2023-01-09T17:49:50.694Z,6.20
2023-01-09T17:54:52.937Z,6.30
2023-01-09T17:59:55.193Z,6.20
2023-01-09T18:04:57.523Z,6.20
2023-01-09T18:09:59.755Z,6.10
2023-01-09T18:15:02.738Z,6.10
2023-01-09T18:20:05.799Z,6.10
2023-01-09T18:25:08.771Z,6.00
2023-01-09T18:30:11.939Z,5.90
2023-01-09T18:35:14.703Z,5.90
2023-01-09T18:40:17.137Z,5.80
2023-01-09T18:45:19.391Z,5.80
2023-01-09T18:50:21.659Z,5.80
2023-01-09T18:55:24.163Z,5.70
2023-01-09T19:00:26.452Z,5.60
2023-01-09T19:05:28.804Z,5.60
2023-01-09T19:10:31.075Z,5.50
2023-01-09T19:15:34.765Z,5.50
2023-01-09T19:20:39.837Z,5.30
2023-01-09T19:25:42.191Z,5.20
2023-01-09T19:30:45.072Z,5.10
2023-01-09T19:35:48.861Z,4.90
2023-01-09T19:40:51.690Z,4.80
2023-01-09T19:45:55.264Z,4.60
2023-01-09T19:51:05.471Z,4.50
2023-01-09T19:56:07.894Z,4.30
2023-01-09T20:01:13.533Z,4.00
2023-01-09T20:06:22.282Z,3.90
2023-01-09T20:11:26.561Z,3.90
2023-01-09T20:16:31.030Z,4.10
2023-01-09T20:21:34.454Z,4.10
2023-01-09T20:26:37.519Z,4.10
2023-01-09T20:31:40.373Z,4.10
2023-01-09T20:36:43.165Z,3.90
2023-01-09T20:41:45.459Z,3.80
2023-01-09T20:46:48.127Z,3.70
2023-01-09T20:51:52.532Z,3.50
2023-01-09T20:56:54.792Z,3.50
2023-01-09T21:01:57.120Z,3.50
2023-01-09T21:06:59.452Z,3.60
2023-01-09T21:12:01.773Z,3.70
2023-01-09T21:17:04.165Z,3.80
2023-01-09T21:22:06.423Z,3.90
2023-01-09T21:27:09.287Z,3.90
2023-01-09T21:32:12.620Z,3.70
2023-01-09T21:37:16.628Z,3.60
2023-01-09T21:42:37.445Z,3.70
2023-01-09T21:47:39.671Z,3.90
2023-01-09T21:52:42.005Z,4.00
2023-01-09T21:57:44.248Z,3.90
2023-01-09T22:02:46.558Z,3.90
2023-01-09T22:07:48.839Z,4.10
2023-01-09T22:13:10.533Z,4.30
2023-01-09T22:18:12.801Z,4.20
2023-01-09T22:23:15.038Z,4.00
2023-01-09T22:28:17.740Z,4.00
2023-01-09T22:33:20.392Z,4.20
2023-01-09T22:38:22.614Z,4.20
2023-01-09T22:43:25.034Z,4.20
2023-01-09T22:48:28.853Z,4.20
2023-01-09T22:53:31.771Z,4.40
2023-01-09T22:58:34.363Z,4.40
2023-01-09T23:03:36.732Z,4.30
2023-01-09T23:08:39.371Z,4.20
2023-01-09T23:13:41.712Z,4.10
2023-01-09T23:18:43.939Z,4.10
2023-01-09T23:23:46.194Z,4.30
2023-01-09T23:28:48.440Z,4.40
2023-01-09T23:33:51.161Z,4.40
2023-01-09T23:38:53.480Z,4.40
2023-01-09T23:43:55.707Z,4.30
2023-01-09T23:48:57.949Z,4.40
2023-01-09T23:54:00.167Z,4.60
2023-01-09T23:59:04.660Z,4.50
